sensor_id;sensor_type;location;lat;lon;timestamp;temperature;humidity
40085;DHT22;25786;51.504;7.344;2022-12-13T00:00:12;-3274.50;82.50
40085;DHT22;25786;51.504;7.344;2022-12-13T00:02:43;-3274.50;82.80
40085;DHT22;25786;51.504;7.344;2022-12-13T00:05:09;-3274.40;82.80
40085;DHT22;25786;51.504;7.344;2022-12-13T00:07:34;-3274.50;82.60
40085;DHT22;25786;51.504;7.344;2022-12-13T00:10:03;-3274.50;82.40
40085;DHT22;25786;51.504;7.344;2022-12-13T00:12:29;-3274.50;82.20
40085;DHT22;25786;51.504;7.344;2022-12-13T00:14:54;-3274.50;82.10
40085;DHT22;25786;51.504;7.344;2022-12-13T00:17:20;-3274.50;82.20
40085;DHT22;25786;51.504;7.344;2022-12-13T00:19:46;-3274.40;82.30
40085;DHT22;25786;51.504;7.344;2022-12-13T00:22:12;-3274.40;82.10
40085;DHT22;25786;51.504;7.344;2022-12-13T00:24:37;-3274.30;81.90
40085;DHT22;25786;51.504;7.344;2022-12-13T00:27:03;-3274.20;82.00
40085;DHT22;25786;51.504;7.344;2022-12-13T00:29:28;-3274.20;82.20
40085;DHT22;25786;51.504;7.344;2022-12-13T00:31:53;-3274.20;82.20
40085;DHT22;25786;51.504;7.344;2022-12-13T00:34:19;-3274.10;82.10
40085;DHT22;25786;51.504;7.344;2022-12-13T00:36:45;-3274.10;82.00
40085;DHT22;25786;51.504;7.344;2022-12-13T00:39:11;-3274.00;82.40
40085;DHT22;25786;51.504;7.344;2022-12-13T00:41:38;-3274.00;82.50
40085;DHT22;25786;51.504;7.344;2022-12-13T00:44:03;-3274.00;82.60
40085;DHT22;25786;51.504;7.344;2022-12-13T00:46:29;-3273.90;82.50
40085;DHT22;25786;51.504;7.344;2022-12-13T00:48:55;-3273.90;82.70
40085;DHT22;25786;51.504;7.344;2022-12-13T00:51:22;-3273.90;83.10
40085;DHT22;25786;51.504;7.344;2022-12-13T00:53:48;-3273.90;83.10
40085;DHT22;25786;51.504;7.344;2022-12-13T00:56:14;-3274.00;83.00
40085;DHT22;25786;51.504;7.344;2022-12-13T00:58:40;-3274.00;82.90
40085;DHT22;25786;51.504;7.344;2022-12-13T01:01:09;-3273.90;83.00
40085;DHT22;25786;51.504;7.344;2022-12-13T01:03:35;-3274.00;82.70
40085;DHT22;25786;51.504;7.344;2022-12-13T01:06:07;-3274.00;82.60
40085;DHT22;25786;51.504;7.344;2022-12-13T01:08:32;-3274.00;82.20
40085;DHT22;25786;51.504;7.344;2022-12-13T01:10:58;-3274.00;82.50
40085;DHT22;25786;51.504;7.344;2022-12-13T01:13:23;-3274.00;82.70
40085;DHT22;25786;51.504;7.344;2022-12-13T01:15:48;-3274.00;82.70
40085;DHT22;25786;51.504;7.344;2022-12-13T01:18:14;-3273.90;82.30
40085;DHT22;25786;51.504;7.344;2022-12-13T01:20:43;-3273.90;82.50
40085;DHT22;25786;51.504;7.344;2022-12-13T01:23:08;-3273.90;82.30
40085;DHT22;25786;51.504;7.344;2022-12-13T01:25:36;-3273.90;82.30
40085;DHT22;25786;51.504;7.344;2022-12-13T01:28:01;-3273.90;82.00
40085;DHT22;25786;51.504;7.344;2022-12-13T01:30:27;-3273.90;81.90
40085;DHT22;25786;51.504;7.344;2022-12-13T01:32:52;-3273.90;81.90
40085;DHT22;25786;51.504;7.344;2022-12-13T01:35:17;-3273.90;82.00
40085;DHT22;25786;51.504;7.344;2022-12-13T01:37:43;-3273.90;81.70
40085;DHT22;25786;51.504;7.344;2022-12-13T01:40:09;-3273.80;81.60
40085;DHT22;25786;51.504;7.344;2022-12-13T01:42:38;-3273.80;82.00
40085;DHT22;25786;51.504;7.344;2022-12-13T01:45:05;-3273.80;81.90
40085;DHT22;25786;51.504;7.344;2022-12-13T01:47:41;-3273.70;82.20
40085;DHT22;25786;51.504;7.344;2022-12-13T01:50:09;-3273.70;82.20
40085;DHT22;25786;51.504;7.344;2022-12-13T01:52:36;-3273.70;82.40
40085;DHT22;25786;51.504;7.344;2022-12-13T01:55:02;-3273.70;82.30
40085;DHT22;25786;51.504;7.344;2022-12-13T01:57:28;-3273.60;81.90
40085;DHT22;25786;51.504;7.344;2022-12-13T01:59:54;-3273.60;82.00
40085;DHT22;25786;51.504;7.344;2022-12-13T02:02:20;-3273.60;82.10
40085;DHT22;25786;51.504;7.344;2022-12-13T02:05:06;-3273.60;82.20
40085;DHT22;25786;51.504;7.344;2022-12-13T02:07:32;-3273.60;82.30
40085;DHT22;25786;51.504;7.344;2022-12-13T02:10:00;-3273.60;82.50
40085;DHT22;25786;51.504;7.344;2022-12-13T02:12:27;-3273.70;82.00
40085;DHT22;25786;51.504;7.344;2022-12-13T02:14:53;-3273.80;81.80
40085;DHT22;25786;51.504;7.344;2022-12-13T02:17:33;-3273.70;81.70
40085;DHT22;25786;51.504;7.344;2022-12-13T02:25:07;-3273.60;81.90
40085;DHT22;25786;51.504;7.344;2022-12-13T02:27:53;-3273.60;82.00
40085;DHT22;25786;51.504;7.344;2022-12-13T02:30:22;-3273.50;81.80
40085;DHT22;25786;51.504;7.344;2022-12-13T02:33:03;-3273.70;81.80
40085;DHT22;25786;51.504;7.344;2022-12-13T02:40:37;-3273.50;81.90
40085;DHT22;25786;51.504;7.344;2022-12-13T02:43:06;-3273.50;82.30
40085;DHT22;25786;51.504;7.344;2022-12-13T02:48:01;-3273.40;82.30
40085;DHT22;25786;51.504;7.344;2022-12-13T02:50:28;-3273.40;82.50
40085;DHT22;25786;51.504;7.344;2022-12-13T02:52:55;-3273.40;82.50
40085;DHT22;25786;51.504;7.344;2022-12-13T02:55:20;-3273.40;82.40
40085;DHT22;25786;51.504;7.344;2022-12-13T02:57:46;-3273.30;82.20
40085;DHT22;25786;51.504;7.344;2022-12-13T03:00:19;-3273.20;82.40
40085;DHT22;25786;51.504;7.344;2022-12-13T03:10:36;-3273.30;82.00
40085;DHT22;25786;51.504;7.344;2022-12-13T03:13:07;-3273.30;82.00
40085;DHT22;25786;51.504;7.344;2022-12-13T03:15:56;-3273.30;82.10
40085;DHT22;25786;51.504;7.344;2022-12-13T03:18:22;-3273.30;81.90
40085;DHT22;25786;51.504;7.344;2022-12-13T03:20:50;-3273.20;81.50
40085;DHT22;25786;51.504;7.344;2022-12-13T03:23:16;-3273.20;81.80
40085;DHT22;25786;51.504;7.344;2022-12-13T03:25:42;-3273.00;81.70
40085;DHT22;25786;51.504;7.344;2022-12-13T03:28:08;-3273.10;81.80
40085;DHT22;25786;51.504;7.344;2022-12-13T03:30:33;-3273.20;81.80
40085;DHT22;25786;51.504;7.344;2022-12-13T03:32:59;-3273.00;81.80
40085;DHT22;25786;51.504;7.344;2022-12-13T03:35:25;-3273.00;81.70
40085;DHT22;25786;51.504;7.344;2022-12-13T03:37:50;-3273.00;81.80
40085;DHT22;25786;51.504;7.344;2022-12-13T03:40:16;-3273.00;81.40
40085;DHT22;25786;51.504;7.344;2022-12-13T03:42:42;-3272.90;81.60
40085;DHT22;25786;51.504;7.344;2022-12-13T03:45:08;-3272.90;82.10
40085;DHT22;25786;51.504;7.344;2022-12-13T03:47:33;-3272.90;82.10
40085;DHT22;25786;51.504;7.344;2022-12-13T03:49:59;-3273.00;81.70
40085;DHT22;25786;51.504;7.344;2022-12-13T03:52:24;-3272.90;81.60
40085;DHT22;25786;51.504;7.344;2022-12-13T03:54:50;-3273.00;81.90
40085;DHT22;25786;51.504;7.344;2022-12-13T03:57:15;-3272.90;81.90
40085;DHT22;25786;51.504;7.344;2022-12-13T03:59:40;-3272.90;81.80
40085;DHT22;25786;51.504;7.344;2022-12-13T04:02:06;-3272.90;81.60
40085;DHT22;25786;51.504;7.344;2022-12-13T04:04:31;-3272.80;81.50
40085;DHT22;25786;51.504;7.344;2022-12-13T04:06:57;-3273.00;81.90
40085;DHT22;25786;51.504;7.344;2022-12-13T04:09:22;-3273.00;81.50
40085;DHT22;25786;51.504;7.344;2022-12-13T04:11:48;-3272.90;81.50
40085;DHT22;25786;51.504;7.344;2022-12-13T04:14:31;-3272.80;81.80
40085;DHT22;25786;51.504;7.344;2022-12-13T04:16:57;-3272.90;81.90
40085;DHT22;25786;51.504;7.344;2022-12-13T04:19:22;-3273.00;82.00
40085;DHT22;25786;51.504;7.344;2022-12-13T04:21:48;-3273.00;81.90
40085;DHT22;25786;51.504;7.344;2022-12-13T04:24:13;-3273.00;82.10
40085;DHT22;25786;51.504;7.344;2022-12-13T04:26:39;-3272.90;81.90
40085;DHT22;25786;51.504;7.344;2022-12-13T04:29:04;-3273.00;81.80
40085;DHT22;25786;51.504;7.344;2022-12-13T04:31:30;-3273.00;81.90
40085;DHT22;25786;51.504;7.344;2022-12-13T04:33:55;-3273.00;81.90
40085;DHT22;25786;51.504;7.344;2022-12-13T04:36:20;-3273.00;81.50
40085;DHT22;25786;51.504;7.344;2022-12-13T04:38:49;-3273.00;81.50
40085;DHT22;25786;51.504;7.344;2022-12-13T04:41:16;-3272.80;81.60
40085;DHT22;25786;51.504;7.344;2022-12-13T04:43:42;-3272.80;81.80
40085;DHT22;25786;51.504;7.344;2022-12-13T04:46:07;-3272.80;81.60
40085;DHT22;25786;51.504;7.344;2022-12-13T04:48:33;-3272.80;81.50
40085;DHT22;25786;51.504;7.344;2022-12-13T04:50:59;-3272.70;81.70
40085;DHT22;25786;51.504;7.344;2022-12-13T04:53:24;-3272.70;81.70
40085;DHT22;25786;51.504;7.344;2022-12-13T04:55:50;-3272.70;81.60
40085;DHT22;25786;51.504;7.344;2022-12-13T04:58:15;-3272.70;81.10
40085;DHT22;25786;51.504;7.344;2022-12-13T05:00:40;-3272.70;81.40
40085;DHT22;25786;51.504;7.344;2022-12-13T05:03:06;-3272.60;81.30
40085;DHT22;25786;51.504;7.344;2022-12-13T05:05:31;-3272.60;81.30
40085;DHT22;25786;51.504;7.344;2022-12-13T05:07:57;-3272.60;81.30
40085;DHT22;25786;51.504;7.344;2022-12-13T05:10:22;-3272.60;81.30
40085;DHT22;25786;51.504;7.344;2022-12-13T05:12:48;-3272.50;81.50
40085;DHT22;25786;51.504;7.344;2022-12-13T05:15:13;-3272.60;81.40
40085;DHT22;25786;51.504;7.344;2022-12-13T05:17:39;-3272.60;81.60
40085;DHT22;25786;51.504;7.344;2022-12-13T05:20:04;-3272.60;82.10
40085;DHT22;25786;51.504;7.344;2022-12-13T05:22:30;-3272.50;81.90
40085;DHT22;25786;51.504;7.344;2022-12-13T05:24:55;-3272.60;81.80
40085;DHT22;25786;51.504;7.344;2022-12-13T05:27:21;-3272.70;81.70
40085;DHT22;25786;51.504;7.344;2022-12-13T05:29:46;-3272.60;81.40
40085;DHT22;25786;51.504;7.344;2022-12-13T05:32:11;-3272.60;81.40
40085;DHT22;25786;51.504;7.344;2022-12-13T05:34:37;-3272.80;81.50
40085;DHT22;25786;51.504;7.344;2022-12-13T05:37:02;-3272.90;81.80
40085;DHT22;25786;51.504;7.344;2022-12-13T05:39:28;-3272.90;81.90
40085;DHT22;25786;51.504;7.344;2022-12-13T05:41:53;-3272.80;82.00
40085;DHT22;25786;51.504;7.344;2022-12-13T05:44:20;-3272.70;81.60
40085;DHT22;25786;51.504;7.344;2022-12-13T05:46:45;-3272.70;81.50
40085;DHT22;25786;51.504;7.344;2022-12-13T05:49:10;-3272.80;81.40
40085;DHT22;25786;51.504;7.344;2022-12-13T05:51:36;-3272.70;80.90
40085;DHT22;25786;51.504;7.344;2022-12-13T05:54:01;-3272.70;80.90
40085;DHT22;25786;51.504;7.344;2022-12-13T05:56:27;-3272.70;80.90
40085;DHT22;25786;51.504;7.344;2022-12-13T05:58:52;-3272.70;81.10
40085;DHT22;25786;51.504;7.344;2022-12-13T06:01:18;-3272.70;81.20
40085;DHT22;25786;51.504;7.344;2022-12-13T06:03:44;-3272.60;80.80
40085;DHT22;25786;51.504;7.344;2022-12-13T06:06:10;-3272.70;81.10
40085;DHT22;25786;51.504;7.344;2022-12-13T06:08:35;-3272.80;81.10
40085;DHT22;25786;51.504;7.344;2022-12-13T06:11:02;-3272.70;81.20
40085;DHT22;25786;51.504;7.344;2022-12-13T06:13:28;-3272.80;81.10
40085;DHT22;25786;51.504;7.344;2022-12-13T06:15:53;-3272.70;81.00
40085;DHT22;25786;51.504;7.344;2022-12-13T06:18:19;-3272.70;81.10
40085;DHT22;25786;51.504;7.344;2022-12-13T06:20:44;-3272.70;80.80
40085;DHT22;25786;51.504;7.344;2022-12-13T06:23:19;-3272.70;80.90
40085;DHT22;25786;51.504;7.344;2022-12-13T06:25:44;-3272.70;81.10
40085;DHT22;25786;51.504;7.344;2022-12-13T06:28:10;-3272.60;80.90
40085;DHT22;25786;51.504;7.344;2022-12-13T06:30:35;-3272.70;80.70
40085;DHT22;25786;51.504;7.344;2022-12-13T06:33:01;-3272.50;80.80
40085;DHT22;25786;51.504;7.344;2022-12-13T06:35:26;-3272.40;81.30
40085;DHT22;25786;51.504;7.344;2022-12-13T06:37:52;-3272.40;80.90
40085;DHT22;25786;51.504;7.344;2022-12-13T06:40:17;-3272.30;81.20
40085;DHT22;25786;51.504;7.344;2022-12-13T06:42:43;-3272.40;81.10
40085;DHT22;25786;51.504;7.344;2022-12-13T06:45:09;-3272.30;81.10
40085;DHT22;25786;51.504;7.344;2022-12-13T06:47:34;-3272.40;81.40
40085;DHT22;25786;51.504;7.344;2022-12-13T06:50:00;-3272.30;81.10
40085;DHT22;25786;51.504;7.344;2022-12-13T06:52:25;-3272.30;81.40
40085;DHT22;25786;51.504;7.344;2022-12-13T06:54:51;-3272.20;81.40
40085;DHT22;25786;51.504;7.344;2022-12-13T06:57:16;-3272.20;81.30
40085;DHT22;25786;51.504;7.344;2022-12-13T06:59:42;-3272.30;81.30
40085;DHT22;25786;51.504;7.344;2022-12-13T07:02:07;-3272.40;80.90
40085;DHT22;25786;51.504;7.344;2022-12-13T07:04:33;-3272.20;80.90
40085;DHT22;25786;51.504;7.344;2022-12-13T07:06:58;-3272.20;81.20
40085;DHT22;25786;51.504;7.344;2022-12-13T07:09:24;-3272.20;81.20
40085;DHT22;25786;51.504;7.344;2022-12-13T07:11:49;-3272.20;81.00
40085;DHT22;25786;51.504;7.344;2022-12-13T07:14:14;-3272.20;81.00
40085;DHT22;25786;51.504;7.344;2022-12-13T07:16:40;-3272.10;81.20
40085;DHT22;25786;51.504;7.344;2022-12-13T07:19:05;-3272.20;81.40
40085;DHT22;25786;51.504;7.344;2022-12-13T07:21:31;-3272.20;81.50
40085;DHT22;25786;51.504;7.344;2022-12-13T07:23:56;-3272.20;81.50
40085;DHT22;25786;51.504;7.344;2022-12-13T07:26:22;-3272.20;80.90
40085;DHT22;25786;51.504;7.344;2022-12-13T07:28:48;-3272.20;80.90
40085;DHT22;25786;51.504;7.344;2022-12-13T07:31:14;-3272.20;81.10
40085;DHT22;25786;51.504;7.344;2022-12-13T07:33:40;-3272.20;80.90
40085;DHT22;25786;51.504;7.344;2022-12-13T07:36:10;-3272.20;80.80
40085;DHT22;25786;51.504;7.344;2022-12-13T07:38:36;-3272.20;81.00
40085;DHT22;25786;51.504;7.344;2022-12-13T07:41:02;-3272.20;80.80
40085;DHT22;25786;51.504;7.344;2022-12-13T07:43:27;-3272.10;80.80
40085;DHT22;25786;51.504;7.344;2022-12-13T07:45:56;-3272.10;80.90
40085;DHT22;25786;51.504;7.344;2022-12-13T07:48:22;-3272.10;80.80
40085;DHT22;25786;51.504;7.344;2022-12-13T07:50:47;-3272.10;81.00
40085;DHT22;25786;51.504;7.344;2022-12-13T07:53:13;-3272.20;81.20
40085;DHT22;25786;51.504;7.344;2022-12-13T07:55:38;-3272.10;81.10
40085;DHT22;25786;51.504;7.344;2022-12-13T07:58:05;-3272.20;80.90
40085;DHT22;25786;51.504;7.344;2022-12-13T08:00:31;-3272.20;81.20
40085;DHT22;25786;51.504;7.344;2022-12-13T08:02:56;-3272.20;81.00
40085;DHT22;25786;51.504;7.344;2022-12-13T08:05:22;-3272.30;81.00
40085;DHT22;25786;51.504;7.344;2022-12-13T08:07:48;-3272.30;80.90
40085;DHT22;25786;51.504;7.344;2022-12-13T08:10:14;-3272.40;80.90
40085;DHT22;25786;51.504;7.344;2022-12-13T08:12:39;-3272.50;81.20
40085;DHT22;25786;51.504;7.344;2022-12-13T08:15:05;-3272.50;81.40
40085;DHT22;25786;51.504;7.344;2022-12-13T08:17:31;-3272.50;81.10
40085;DHT22;25786;51.504;7.344;2022-12-13T08:19:56;-3272.50;81.20
40085;DHT22;25786;51.504;7.344;2022-12-13T08:22:21;-3272.60;81.30
40085;DHT22;25786;51.504;7.344;2022-12-13T08:24:47;-3272.60;81.40
40085;DHT22;25786;51.504;7.344;2022-12-13T08:27:12;-3272.70;81.80
40085;DHT22;25786;51.504;7.344;2022-12-13T08:29:38;-3272.70;81.30
40085;DHT22;25786;51.504;7.344;2022-12-13T08:32:04;-3272.70;81.50
40085;DHT22;25786;51.504;7.344;2022-12-13T08:34:30;-3272.90;81.90
40085;DHT22;25786;51.504;7.344;2022-12-13T08:36:55;-3272.90;81.90
40085;DHT22;25786;51.504;7.344;2022-12-13T08:39:21;-3272.90;81.90
40085;DHT22;25786;51.504;7.344;2022-12-13T08:41:46;-3273.00;82.10
40085;DHT22;25786;51.504;7.344;2022-12-13T08:44:12;-3273.00;82.00
40085;DHT22;25786;51.504;7.344;2022-12-13T08:46:37;-3273.00;82.20
40085;DHT22;25786;51.504;7.344;2022-12-13T08:49:03;-3273.00;82.70
40085;DHT22;25786;51.504;7.344;2022-12-13T08:51:28;-3273.20;83.00
40085;DHT22;25786;51.504;7.344;2022-12-13T08:53:53;-3273.20;83.00
40085;DHT22;25786;51.504;7.344;2022-12-13T08:56:19;-3273.30;83.10
40085;DHT22;25786;51.504;7.344;2022-12-13T08:58:47;-3273.30;82.90
40085;DHT22;25786;51.504;7.344;2022-12-13T09:01:13;-3273.30;82.90
40085;DHT22;25786;51.504;7.344;2022-12-13T09:03:38;-3273.30;83.10
40085;DHT22;25786;51.504;7.344;2022-12-13T09:06:07;-3273.30;83.60
40085;DHT22;25786;51.504;7.344;2022-12-13T09:08:34;-3273.40;83.80
40085;DHT22;25786;51.504;7.344;2022-12-13T09:11:00;-3273.40;84.00
40085;DHT22;25786;51.504;7.344;2022-12-13T09:13:27;-3273.40;84.00
40085;DHT22;25786;51.504;7.344;2022-12-13T09:15:52;-3273.50;84.00
40085;DHT22;25786;51.504;7.344;2022-12-13T09:18:18;-3273.60;84.00
40085;DHT22;25786;51.504;7.344;2022-12-13T09:20:43;-3273.70;83.90
40085;DHT22;25786;51.504;7.344;2022-12-13T09:23:09;-3273.70;84.10
40085;DHT22;25786;51.504;7.344;2022-12-13T09:25:34;-3273.70;84.30
40085;DHT22;25786;51.504;7.344;2022-12-13T09:28:02;-3273.70;84.40
40085;DHT22;25786;51.504;7.344;2022-12-13T09:30:27;-3273.70;84.70
40085;DHT22;25786;51.504;7.344;2022-12-13T09:32:54;-3273.80;84.90
40085;DHT22;25786;51.504;7.344;2022-12-13T09:35:19;-3273.80;84.90
40085;DHT22;25786;51.504;7.344;2022-12-13T09:37:45;-3273.80;84.90
40085;DHT22;25786;51.504;7.344;2022-12-13T09:40:24;-3273.90;84.90
40085;DHT22;25786;51.504;7.344;2022-12-13T09:42:51;-3274.00;84.80
40085;DHT22;25786;51.504;7.344;2022-12-13T09:45:18;-3274.10;84.70
40085;DHT22;25786;51.504;7.344;2022-12-13T09:47:44;-3274.10;84.60
40085;DHT22;25786;51.504;7.344;2022-12-13T09:50:22;-3274.20;84.40
40085;DHT22;25786;51.504;7.344;2022-12-13T09:52:48;-3274.20;84.40
40085;DHT22;25786;51.504;7.344;2022-12-13T09:55:17;-3274.30;84.30
40085;DHT22;25786;51.504;7.344;2022-12-13T09:57:43;-3274.30;84.20
40085;DHT22;25786;51.504;7.344;2022-12-13T10:00:12;-3274.40;84.20
40085;DHT22;25786;51.504;7.344;2022-12-13T10:02:45;-3274.40;84.00
40085;DHT22;25786;51.504;7.344;2022-12-13T10:05:16;-3274.40;83.80
40085;DHT22;25786;51.504;7.344;2022-12-13T10:07:42;-3274.50;83.80
40085;DHT22;25786;51.504;7.344;2022-12-13T10:10:08;-3274.50;83.80
40085;DHT22;25786;51.504;7.344;2022-12-13T10:12:34;-3274.50;83.60
40085;DHT22;25786;51.504;7.344;2022-12-13T10:15:01;-3274.60;83.10
40085;DHT22;25786;51.504;7.344;2022-12-13T10:17:34;-3274.60;82.70
40085;DHT22;25786;51.504;7.344;2022-12-13T10:20:00;-3274.70;82.00
40085;DHT22;25786;51.504;7.344;2022-12-13T10:22:26;-3274.70;81.60
40085;DHT22;25786;51.504;7.344;2022-12-13T10:25:01;-3274.80;81.70
40085;DHT22;25786;51.504;7.344;2022-12-13T10:27:40;-3274.80;81.90
40085;DHT22;25786;51.504;7.344;2022-12-13T10:30:24;-3274.90;82.00
40085;DHT22;25786;51.504;7.344;2022-12-13T10:32:52;-3275.10;81.50
40085;DHT22;25786;51.504;7.344;2022-12-13T10:37:47;-3275.10;81.10
40085;DHT22;25786;51.504;7.344;2022-12-13T10:45:32;-3275.10;81.30
40085;DHT22;25786;51.504;7.344;2022-12-13T10:47:57;-3275.10;81.50
40085;DHT22;25786;51.504;7.344;2022-12-13T10:50:24;-3275.20;81.80
40085;DHT22;25786;51.504;7.344;2022-12-13T10:52:50;-3275.20;81.80
40085;DHT22;25786;51.504;7.344;2022-12-13T10:57:55;-3275.50;82.10
40085;DHT22;25786;51.504;7.344;2022-12-13T11:00:32;-3275.50;82.10
40085;DHT22;25786;51.504;7.344;2022-12-13T11:02:58;-3275.60;81.80
40085;DHT22;25786;51.504;7.344;2022-12-13T11:07:49;-3275.60;81.70
40085;DHT22;25786;51.504;7.344;2022-12-13T11:10:25;-3275.60;81.20
40085;DHT22;25786;51.504;7.344;2022-12-13T11:12:52;-3275.60;81.50
40085;DHT22;25786;51.504;7.344;2022-12-13T11:15:20;-3275.60;81.10
40085;DHT22;25786;51.504;7.344;2022-12-13T11:17:57;-3275.70;81.00
40085;DHT22;25786;51.504;7.344;2022-12-13T11:20:24;-3275.80;80.90
40085;DHT22;25786;51.504;7.344;2022-12-13T11:22:57;-3276.00;80.60
40085;DHT22;25786;51.504;7.344;2022-12-13T11:25:42;-3276.00;80.30
40085;DHT22;25786;51.504;7.344;2022-12-13T11:28:11;-3276.00;80.00
40085;DHT22;25786;51.504;7.344;2022-12-13T11:35:42;-3276.10;79.40
40085;DHT22;25786;51.504;7.344;2022-12-13T11:40:59;-3276.00;79.40
40085;DHT22;25786;51.504;7.344;2022-12-13T11:43:32;-3276.10;79.70
40085;DHT22;25786;51.504;7.344;2022-12-13T11:46:01;-3276.00;79.10
40085;DHT22;25786;51.504;7.344;2022-12-13T11:48:32;-3276.10;78.60
40085;DHT22;25786;51.504;7.344;2022-12-13T11:51:01;-3276.20;78.70
40085;DHT22;25786;51.504;7.344;2022-12-13T11:54:04;-3276.20;78.30
40085;DHT22;25786;51.504;7.344;2022-12-13T11:56:25;-3276.30;78.50
40085;DHT22;25786;51.504;7.344;2022-12-13T12:01:29;-3276.40;77.90
40085;DHT22;25786;51.504;7.344;2022-12-13T12:06:22;-3276.40;75.90
40085;DHT22;25786;51.504;7.344;2022-12-13T12:14:02;-3276.40;76.70
40085;DHT22;25786;51.504;7.344;2022-12-13T12:16:30;-3276.50;76.80
40085;DHT22;25786;51.504;7.344;2022-12-13T12:18:58;-3276.50;76.00
40085;DHT22;25786;51.504;7.344;2022-12-13T12:46:54;-3276.40;76.70
40085;DHT22;25786;51.504;7.344;2022-12-13T12:49:27;-3276.40;75.40
40085;DHT22;25786;51.504;7.344;2022-12-13T12:54:41;-3276.40;74.30
40085;DHT22;25786;51.504;7.344;2022-12-13T12:57:11;-3276.40;74.30
40085;DHT22;25786;51.504;7.344;2022-12-13T12:59:48;-3276.30;74.20
40085;DHT22;25786;51.504;7.344;2022-12-13T13:02:22;-3276.40;74.60
40085;DHT22;25786;51.504;7.344;2022-12-13T13:04:53;-3276.40;74.90
40085;DHT22;25786;51.504;7.344;2022-12-13T13:07:22;-3276.40;75.50
40085;DHT22;25786;51.504;7.344;2022-12-13T13:09:50;-3276.30;75.70
40085;DHT22;25786;51.504;7.344;2022-12-13T13:12:16;-3276.40;76.00
40085;DHT22;25786;51.504;7.344;2022-12-13T13:14:43;-3276.40;76.30
40085;DHT22;25786;51.504;7.344;2022-12-13T13:19:41;-3276.40;74.40
40085;DHT22;25786;51.504;7.344;2022-12-13T13:22:23;-3276.40;73.30
40085;DHT22;25786;51.504;7.344;2022-12-13T13:24:57;-3276.40;73.30
40085;DHT22;25786;51.504;7.344;2022-12-13T13:27:27;-3276.40;72.70
40085;DHT22;25786;51.504;7.344;2022-12-13T13:29:53;-3276.40;72.50
40085;DHT22;25786;51.504;7.344;2022-12-13T13:32:29;-3276.50;72.70
40085;DHT22;25786;51.504;7.344;2022-12-13T13:35:43;-3276.50;73.10
40085;DHT22;25786;51.504;7.344;2022-12-13T13:37:47;-3276.50;72.90
40085;DHT22;25786;51.504;7.344;2022-12-13T13:45:23;-3276.60;71.00
40085;DHT22;25786;51.504;7.344;2022-12-13T13:47:53;-3276.50;70.90
40085;DHT22;25786;51.504;7.344;2022-12-13T13:50:28;-3276.50;71.10
40085;DHT22;25786;51.504;7.344;2022-12-13T13:58:28;-3276.60;71.70
40085;DHT22;25786;51.504;7.344;2022-12-13T14:16:34;-3276.70;69.30
40085;DHT22;25786;51.504;7.344;2022-12-13T14:24:19;-3276.50;71.50
40085;DHT22;25786;51.504;7.344;2022-12-13T14:29:44;-3276.60;73.90
40085;DHT22;25786;51.504;7.344;2022-12-13T14:32:29;-3276.60;74.00
40085;DHT22;25786;51.504;7.344;2022-12-13T14:34:55;-3276.50;72.80
40085;DHT22;25786;51.504;7.344;2022-12-13T14:39:46;-3276.50;72.60
40085;DHT22;25786;51.504;7.344;2022-12-13T14:44:50;-3276.40;73.50
40085;DHT22;25786;51.504;7.344;2022-12-13T14:47:15;-3276.50;74.10
40085;DHT22;25786;51.504;7.344;2022-12-13T14:49:42;-3276.50;74.30
40085;DHT22;25786;51.504;7.344;2022-12-13T14:52:18;-3276.50;74.30
40085;DHT22;25786;51.504;7.344;2022-12-13T14:54:48;-3276.50;74.50
40085;DHT22;25786;51.504;7.344;2022-12-13T14:57:16;-3276.50;75.10
40085;DHT22;25786;51.504;7.344;2022-12-13T14:59:49;-3276.60;75.40
40085;DHT22;25786;51.504;7.344;2022-12-13T15:02:16;-3276.70;75.40
40085;DHT22;25786;51.504;7.344;2022-12-13T15:04:42;-3276.70;75.40
40085;DHT22;25786;51.504;7.344;2022-12-13T15:10:36;-3276.70;75.30
40085;DHT22;25786;51.504;7.344;2022-12-13T15:12:41;-3276.70;75.90
40085;DHT22;25786;51.504;7.344;2022-12-13T15:15:13;-3276.60;76.00
40085;DHT22;25786;51.504;7.344;2022-12-13T15:17:41;-3276.60;76.50
40085;DHT22;25786;51.504;7.344;2022-12-13T15:20:19;-3276.50;76.90
40085;DHT22;25786;51.504;7.344;2022-12-13T15:22:45;-3276.50;77.00
40085;DHT22;25786;51.504;7.344;2022-12-13T15:25:14;-3276.50;77.60
40085;DHT22;25786;51.504;7.344;2022-12-13T15:27:39;-3276.50;77.50
40085;DHT22;25786;51.504;7.344;2022-12-13T15:30:05;-3276.50;77.50
40085;DHT22;25786;51.504;7.344;2022-12-13T15:32:30;-3276.50;77.30
40085;DHT22;25786;51.504;7.344;2022-12-13T15:34:56;-3276.50;77.30
40085;DHT22;25786;51.504;7.344;2022-12-13T15:37:38;-3276.50;77.50
40085;DHT22;25786;51.504;7.344;2022-12-13T15:40:05;-3276.50;77.70
40085;DHT22;25786;51.504;7.344;2022-12-13T15:42:32;-3276.50;77.70
40085;DHT22;25786;51.504;7.344;2022-12-13T15:44:59;-3276.50;77.80
40085;DHT22;25786;51.504;7.344;2022-12-13T15:47:25;-3276.40;78.10
40085;DHT22;25786;51.504;7.344;2022-12-13T15:49:52;-3276.50;78.00
40085;DHT22;25786;51.504;7.344;2022-12-13T15:52:23;-3276.40;77.90
40085;DHT22;25786;51.504;7.344;2022-12-13T15:57:50;-3276.40;78.20
40085;DHT22;25786;51.504;7.344;2022-12-13T16:00:18;-3276.50;78.10
40085;DHT22;25786;51.504;7.344;2022-12-13T16:02:55;-3276.40;78.40
40085;DHT22;25786;51.504;7.344;2022-12-13T16:05:28;-3276.40;78.70
40085;DHT22;25786;51.504;7.344;2022-12-13T16:07:54;-3276.40;78.80
40085;DHT22;25786;51.504;7.344;2022-12-13T16:10:20;-3276.40;78.90
40085;DHT22;25786;51.504;7.344;2022-12-13T16:12:51;-3276.40;78.60
40085;DHT22;25786;51.504;7.344;2022-12-13T16:17:55;-3276.30;79.10
40085;DHT22;25786;51.504;7.344;2022-12-13T16:20:28;-3276.30;78.80
40085;DHT22;25786;51.504;7.344;2022-12-13T16:22:54;-3276.40;79.20
40085;DHT22;25786;51.504;7.344;2022-12-13T16:25:20;-3276.40;79.20
40085;DHT22;25786;51.504;7.344;2022-12-13T16:27:45;-3276.40;79.00
40085;DHT22;25786;51.504;7.344;2022-12-13T16:30:26;-3276.40;78.70
40085;DHT22;25786;51.504;7.344;2022-12-13T16:32:57;-3276.40;78.70
40085;DHT22;25786;51.504;7.344;2022-12-13T16:35:23;-3276.30;79.00
40085;DHT22;25786;51.504;7.344;2022-12-13T16:37:48;-3276.30;79.00
40085;DHT22;25786;51.504;7.344;2022-12-13T16:40:20;-3276.40;78.60
40085;DHT22;25786;51.504;7.344;2022-12-13T16:42:46;-3276.40;78.40
40085;DHT22;25786;51.504;7.344;2022-12-13T16:45:12;-3276.40;78.00
40085;DHT22;25786;51.504;7.344;2022-12-13T16:47:38;-3276.20;78.50
40085;DHT22;25786;51.504;7.344;2022-12-13T16:50:05;-3276.20;79.10
40085;DHT22;25786;51.504;7.344;2022-12-13T16:52:33;-3276.20;79.20
40085;DHT22;25786;51.504;7.344;2022-12-13T16:54:59;-3276.20;79.30
40085;DHT22;25786;51.504;7.344;2022-12-13T16:57:25;-3276.20;79.20
40085;DHT22;25786;51.504;7.344;2022-12-13T16:59:50;-3276.20;79.20